sensor_id;sensor_type;location;lat;lon;timestamp;temperature;humidity
3488;DHT22;38546;48.170;11.724;2022-11-20T00:00:04;6.60;99.90
3488;DHT22;38546;48.170;11.724;2022-11-20T00:02:53;6.60;99.90
3488;DHT22;38546;48.170;11.724;2022-11-20T00:05:43;6.60;99.90
3488;DHT22;38546;48.170;11.724;2022-11-20T00:08:33;6.60;99.90
3488;DHT22;38546;48.170;11.724;2022-11-20T00:11:24;6.50;99.90
3488;DHT22;38546;48.170;11.724;2022-11-20T00:14:14;6.50;99.90
3488;DHT22;38546;48.170;11.724;2022-11-20T00:17:03;6.70;99.90
3488;DHT22;38546;48.170;11.724;2022-11-20T00:19:52;6.90;99.90
3488;DHT22;38546;48.170;11.724;2022-11-20T00:22:42;6.70;99.90
3488;DHT22;38546;48.170;11.724;2022-11-20T00:25:33;6.60;99.90
3488;DHT22;38546;48.170;11.724;2022-11-20T00:28:23;6.60;99.90
3488;DHT22;38546;48.170;11.724;2022-11-20T00:31:14;6.70;99.90
3488;DHT22;38546;48.170;11.724;2022-11-20T00:34:04;6.90;99.90
3488;DHT22;38546;48.170;11.724;2022-11-20T00:36:54;6.70;99.90
3488;DHT22;38546;48.170;11.724;2022-11-20T00:39:43;6.70;99.90
3488;DHT22;38546;48.170;11.724;2022-11-20T00:42:32;6.60;99.90
3488;DHT22;38546;48.170;11.724;2022-11-20T00:45:23;6.70;99.90
3488;DHT22;38546;48.170;11.724;2022-11-20T00:48:12;6.80;99.90
3488;DHT22;38546;48.170;11.724;2022-11-20T00:51:01;6.70;99.90
3488;DHT22;38546;48.170;11.724;2022-11-20T00:53:51;6.80;99.90
3488;DHT22;38546;48.170;11.724;2022-11-20T00:56:40;6.70;99.90
3488;DHT22;38546;48.170;11.724;2022-11-20T00:59:29;6.70;99.90
3488;DHT22;38546;48.170;11.724;2022-11-20T01:02:19;6.60;99.90
3488;DHT22;38546;48.170;11.724;2022-11-20T01:05:09;6.50;99.90
3488;DHT22;38546;48.170;11.724;2022-11-20T01:07:58;6.40;99.90
3488;DHT22;38546;48.170;11.724;2022-11-20T01:10:47;6.20;99.90
3488;DHT22;38546;48.170;11.724;2022-11-20T01:13:37;6.30;99.90
3488;DHT22;38546;48.170;11.724;2022-11-20T01:16:32;6.30;99.90
3488;DHT22;38546;48.170;11.724;2022-11-20T01:19:25;6.20;99.90
3488;DHT22;38546;48.170;11.724;2022-11-20T01:22:14;6.10;99.90
3488;DHT22;38546;48.170;11.724;2022-11-20T01:25:04;6.20;99.90
3488;DHT22;38546;48.170;11.724;2022-11-20T01:27:54;6.20;99.90
3488;DHT22;38546;48.170;11.724;2022-11-20T01:30:43;6.40;99.90
3488;DHT22;38546;48.170;11.724;2022-11-20T01:33:33;6.40;99.90
3488;DHT22;38546;48.170;11.724;2022-11-20T01:36:27;6.40;99.90
3488;DHT22;38546;48.170;11.724;2022-11-20T01:39:24;6.30;99.90
3488;DHT22;38546;48.170;11.724;2022-11-20T01:42:14;6.30;99.90
3488;DHT22;38546;48.170;11.724;2022-11-20T01:46:04;6.30;99.90
3488;DHT22;38546;48.170;11.724;2022-11-20T01:49:09;6.20;99.90
3488;DHT22;38546;48.170;11.724;2022-11-20T01:52:10;6.40;99.90
3488;DHT22;38546;48.170;11.724;2022-11-20T01:55:13;6.60;99.90
3488;DHT22;38546;48.170;11.724;2022-11-20T01:58:05;6.50;99.90
3488;DHT22;38546;48.170;11.724;2022-11-20T02:00:55;6.40;99.90
3488;DHT22;38546;48.170;11.724;2022-11-20T02:03:45;6.40;99.90
3488;DHT22;38546;48.170;11.724;2022-11-20T02:06:42;6.40;99.90
3488;DHT22;38546;48.170;11.724;2022-11-20T02:09:34;6.60;99.90
3488;DHT22;38546;48.170;11.724;2022-11-20T02:12:24;6.50;99.90
3488;DHT22;38546;48.170;11.724;2022-11-20T02:15:33;6.50;99.90
3488;DHT22;38546;48.170;11.724;2022-11-20T02:18:23;6.50;99.90
3488;DHT22;38546;48.170;11.724;2022-11-20T02:26:01;6.40;99.90
3488;DHT22;38546;48.170;11.724;2022-11-20T02:28:51;6.40;99.90
3488;DHT22;38546;48.170;11.724;2022-11-20T02:31:42;6.50;99.90
3488;DHT22;38546;48.170;11.724;2022-11-20T02:34:32;6.50;99.90
3488;DHT22;38546;48.170;11.724;2022-11-20T02:37:23;6.50;99.90
3488;DHT22;38546;48.170;11.724;2022-11-20T02:40:18;6.30;99.90
3488;DHT22;38546;48.170;11.724;2022-11-20T02:43:08;6.40;99.90
3488;DHT22;38546;48.170;11.724;2022-11-20T02:45:58;6.40;99.90
3488;DHT22;38546;48.170;11.724;2022-11-20T02:48:48;6.30;99.90
3488;DHT22;38546;48.170;11.724;2022-11-20T02:51:37;6.50;99.90
3488;DHT22;38546;48.170;11.724;2022-11-20T02:54:26;6.50;99.90
3488;DHT22;38546;48.170;11.724;2022-11-20T02:57:16;6.40;99.90
3488;DHT22;38546;48.170;11.724;2022-11-20T03:00:07;6.40;99.90
3488;DHT22;38546;48.170;11.724;2022-11-20T03:02:58;6.40;99.90
3488;DHT22;38546;48.170;11.724;2022-11-20T03:05:47;6.50;99.90
3488;DHT22;38546;48.170;11.724;2022-11-20T03:08:37;6.50;99.90
3488;DHT22;38546;48.170;11.724;2022-11-20T03:11:27;6.60;99.90
3488;DHT22;38546;48.170;11.724;2022-11-20T03:14:17;6.50;99.90
3488;DHT22;38546;48.170;11.724;2022-11-20T03:17:07;6.50;99.90
3488;DHT22;38546;48.170;11.724;2022-11-20T03:19:57;6.60;99.90
3488;DHT22;38546;48.170;11.724;2022-11-20T03:22:46;6.50;99.90
3488;DHT22;38546;48.170;11.724;2022-11-20T03:25:35;6.50;99.90
3488;DHT22;38546;48.170;11.724;2022-11-20T03:28:24;6.50;99.90
3488;DHT22;38546;48.170;11.724;2022-11-20T03:31:16;6.40;99.90
3488;DHT22;38546;48.170;11.724;2022-11-20T03:34:07;6.30;99.90
3488;DHT22;38546;48.170;11.724;2022-11-20T03:36:58;6.40;99.90
3488;DHT22;38546;48.170;11.724;2022-11-20T03:39:47;6.60;99.90
3488;DHT22;38546;48.170;11.724;2022-11-20T03:42:36;6.70;99.90
3488;DHT22;38546;48.170;11.724;2022-11-20T03:45:34;6.50;99.90
3488;DHT22;38546;48.170;11.724;2022-11-20T03:48:23;6.50;99.90
3488;DHT22;38546;48.170;11.724;2022-11-20T03:51:20;6.60;99.90
3488;DHT22;38546;48.170;11.724;2022-11-20T03:54:42;6.40;99.90
3488;DHT22;38546;48.170;11.724;2022-11-20T03:57:32;6.60;99.90
3488;DHT22;38546;48.170;11.724;2022-11-20T04:00:21;6.50;99.90
3488;DHT22;38546;48.170;11.724;2022-11-20T04:03:11;6.70;99.90
3488;DHT22;38546;48.170;11.724;2022-11-20T04:06:09;6.70;99.90
3488;DHT22;38546;48.170;11.724;2022-11-20T04:09:02;6.60;99.90
3488;DHT22;38546;48.170;11.724;2022-11-20T04:11:53;6.60;99.90
3488;DHT22;38546;48.170;11.724;2022-11-20T04:14:42;6.50;99.90
3488;DHT22;38546;48.170;11.724;2022-11-20T04:17:31;6.70;99.90
3488;DHT22;38546;48.170;11.724;2022-11-20T04:20:20;6.70;99.90
3488;DHT22;38546;48.170;11.724;2022-11-20T04:23:10;6.70;99.90
3488;DHT22;38546;48.170;11.724;2022-11-20T04:26:07;6.60;99.90
3488;DHT22;38546;48.170;11.724;2022-11-20T04:28:58;6.70;99.90
3488;DHT22;38546;48.170;11.724;2022-11-20T04:31:48;6.60;99.90
3488;DHT22;38546;48.170;11.724;2022-11-20T04:34:37;6.70;99.90
3488;DHT22;38546;48.170;11.724;2022-11-20T04:37:27;6.60;99.90
3488;DHT22;38546;48.170;11.724;2022-11-20T04:40:16;6.60;99.90
3488;DHT22;38546;48.170;11.724;2022-11-20T04:43:05;6.80;99.90
3488;DHT22;38546;48.170;11.724;2022-11-20T04:45:56;6.70;99.90
3488;DHT22;38546;48.170;11.724;2022-11-20T04:48:47;6.60;99.90
3488;DHT22;38546;48.170;11.724;2022-11-20T04:51:37;6.40;99.90
3488;DHT22;38546;48.170;11.724;2022-11-20T04:54:26;6.60;99.90
3488;DHT22;38546;48.170;11.724;2022-11-20T04:57:16;6.60;99.90
3488;DHT22;38546;48.170;11.724;2022-11-20T05:00:07;6.50;99.90
3488;DHT22;38546;48.170;11.724;2022-11-20T05:02:57;6.40;99.90
3488;DHT22;38546;48.170;11.724;2022-11-20T05:05:46;6.40;99.90
3488;DHT22;38546;48.170;11.724;2022-11-20T05:08:36;6.40;99.90
3488;DHT22;38546;48.170;11.724;2022-11-20T05:11:25;6.40;99.90
3488;DHT22;38546;48.170;11.724;2022-11-20T05:14:18;6.40;99.90
3488;DHT22;38546;48.170;11.724;2022-11-20T05:17:10;6.60;99.90
3488;DHT22;38546;48.170;11.724;2022-11-20T05:20:00;6.60;99.90
3488;DHT22;38546;48.170;11.724;2022-11-20T05:22:49;6.60;99.90
3488;DHT22;38546;48.170;11.724;2022-11-20T05:25:39;6.60;99.90
3488;DHT22;38546;48.170;11.724;2022-11-20T05:28:29;6.70;99.90
3488;DHT22;38546;48.170;11.724;2022-11-20T05:31:24;6.50;99.90
3488;DHT22;38546;48.170;11.724;2022-11-20T05:34:14;6.60;99.90
3488;DHT22;38546;48.170;11.724;2022-11-20T05:37:04;6.50;99.90
3488;DHT22;38546;48.170;11.724;2022-11-20T05:39:53;6.50;99.90
3488;DHT22;38546;48.170;11.724;2022-11-20T05:42:42;6.70;99.90
3488;DHT22;38546;48.170;11.724;2022-11-20T05:45:33;6.50;99.90
3488;DHT22;38546;48.170;11.724;2022-11-20T05:48:22;6.70;99.90
3488;DHT22;38546;48.170;11.724;2022-11-20T05:51:13;6.60;99.90
3488;DHT22;38546;48.170;11.724;2022-11-20T05:54:04;6.60;99.90
3488;DHT22;38546;48.170;11.724;2022-11-20T05:56:54;6.50;99.90
3488;DHT22;38546;48.170;11.724;2022-11-20T05:59:43;6.60;99.90
3488;DHT22;38546;48.170;11.724;2022-11-20T06:02:34;6.60;99.90
3488;DHT22;38546;48.170;11.724;2022-11-20T06:05:25;6.60;99.90
3488;DHT22;38546;48.170;11.724;2022-11-20T06:08:14;6.60;99.90
3488;DHT22;38546;48.170;11.724;2022-11-20T06:11:08;6.70;99.90
3488;DHT22;38546;48.170;11.724;2022-11-20T06:13:58;6.80;99.90
3488;DHT22;38546;48.170;11.724;2022-11-20T06:16:48;6.70;99.90
3488;DHT22;38546;48.170;11.724;2022-11-20T06:19:36;6.70;99.90
3488;DHT22;38546;48.170;11.724;2022-11-20T06:22:25;6.70;99.90
3488;DHT22;38546;48.170;11.724;2022-11-20T06:25:14;6.80;99.90
3488;DHT22;38546;48.170;11.724;2022-11-20T06:28:04;6.60;99.90
3488;DHT22;38546;48.170;11.724;2022-11-20T06:30:53;6.60;99.90
3488;DHT22;38546;48.170;11.724;2022-11-20T06:33:42;6.60;99.90
3488;DHT22;38546;48.170;11.724;2022-11-20T06:36:33;6.50;99.90
3488;DHT22;38546;48.170;11.724;2022-11-20T06:39:22;6.50;99.90
3488;DHT22;38546;48.170;11.724;2022-11-20T06:42:11;6.20;99.90
3488;DHT22;38546;48.170;11.724;2022-11-20T06:44:59;6.20;99.90
3488;DHT22;38546;48.170;11.724;2022-11-20T06:47:48;6.30;99.90
3488;DHT22;38546;48.170;11.724;2022-11-20T06:50:37;6.30;99.90
3488;DHT22;38546;48.170;11.724;2022-11-20T06:53:26;6.30;99.90
3488;DHT22;38546;48.170;11.724;2022-11-20T06:56:15;6.30;99.90
3488;DHT22;38546;48.170;11.724;2022-11-20T06:59:06;6.40;99.90
3488;DHT22;38546;48.170;11.724;2022-11-20T07:01:56;6.30;99.90
3488;DHT22;38546;48.170;11.724;2022-11-20T07:04:45;6.30;99.90
3488;DHT22;38546;48.170;11.724;2022-11-20T07:07:34;6.20;99.90
3488;DHT22;38546;48.170;11.724;2022-11-20T07:10:24;6.20;99.90
3488;DHT22;38546;48.170;11.724;2022-11-20T07:13:14;6.40;99.90
3488;DHT22;38546;48.170;11.724;2022-11-20T07:16:06;6.60;99.90
3488;DHT22;38546;48.170;11.724;2022-11-20T07:18:56;6.60;99.90
3488;DHT22;38546;48.170;11.724;2022-11-20T07:21:45;6.70;99.90
3488;DHT22;38546;48.170;11.724;2022-11-20T07:24:34;6.70;99.90
3488;DHT22;38546;48.170;11.724;2022-11-20T07:27:23;6.70;99.90
3488;DHT22;38546;48.170;11.724;2022-11-20T07:30:13;6.50;99.90
3488;DHT22;38546;48.170;11.724;2022-11-20T07:33:03;6.50;99.90
3488;DHT22;38546;48.170;11.724;2022-11-20T07:35:51;6.60;99.90
3488;DHT22;38546;48.170;11.724;2022-11-20T07:38:41;6.60;99.90
3488;DHT22;38546;48.170;11.724;2022-11-20T07:41:31;6.70;99.90
3488;DHT22;38546;48.170;11.724;2022-11-20T07:44:20;6.80;99.90
3488;DHT22;38546;48.170;11.724;2022-11-20T07:47:09;6.90;99.90
3488;DHT22;38546;48.170;11.724;2022-11-20T07:49:58;7.00;99.90
3488;DHT22;38546;48.170;11.724;2022-11-20T07:52:47;6.80;99.90
3488;DHT22;38546;48.170;11.724;2022-11-20T07:55:36;6.90;99.90
3488;DHT22;38546;48.170;11.724;2022-11-20T07:58:25;6.90;99.90
3488;DHT22;38546;48.170;11.724;2022-11-20T08:01:14;7.10;99.90
3488;DHT22;38546;48.170;11.724;2022-11-20T08:04:04;6.90;99.90
3488;DHT22;38546;48.170;11.724;2022-11-20T08:06:53;6.90;99.90
3488;DHT22;38546;48.170;11.724;2022-11-20T08:09:43;7.00;99.90
3488;DHT22;38546;48.170;11.724;2022-11-20T08:12:32;7.10;99.90
3488;DHT22;38546;48.170;11.724;2022-11-20T08:15:41;7.10;99.90
3488;DHT22;38546;48.170;11.724;2022-11-20T08:18:36;7.00;99.90
3488;DHT22;38546;48.170;11.724;2022-11-20T08:21:25;7.20;99.90
3488;DHT22;38546;48.170;11.724;2022-11-20T08:24:14;7.10;99.90
3488;DHT22;38546;48.170;11.724;2022-11-20T08:27:04;7.30;99.90
3488;DHT22;38546;48.170;11.724;2022-11-20T08:29:53;7.30;99.90
3488;DHT22;38546;48.170;11.724;2022-11-20T08:32:43;7.20;99.90
3488;DHT22;38546;48.170;11.724;2022-11-20T08:35:33;7.30;99.90
3488;DHT22;38546;48.170;11.724;2022-11-20T08:38:24;7.20;99.90
3488;DHT22;38546;48.170;11.724;2022-11-20T08:41:14;7.40;99.90
3488;DHT22;38546;48.170;11.724;2022-11-20T08:44:12;7.40;99.90
3488;DHT22;38546;48.170;11.724;2022-11-20T08:47:02;7.20;99.90
3488;DHT22;38546;48.170;11.724;2022-11-20T08:49:53;7.40;99.90
3488;DHT22;38546;48.170;11.724;2022-11-20T08:52:42;7.40;99.90
3488;DHT22;38546;48.170;11.724;2022-11-20T08:55:33;7.30;99.90
3488;DHT22;38546;48.170;11.724;2022-11-20T08:58:25;7.30;99.90
3488;DHT22;38546;48.170;11.724;2022-11-20T09:01:15;7.50;99.90
3488;DHT22;38546;48.170;11.724;2022-11-20T09:04:04;7.70;99.90
3488;DHT22;38546;48.170;11.724;2022-11-20T09:06:54;7.40;99.90
3488;DHT22;38546;48.170;11.724;2022-11-20T09:09:43;7.50;99.90
3488;DHT22;38546;48.170;11.724;2022-11-20T09:12:33;7.50;99.90
3488;DHT22;38546;48.170;11.724;2022-11-20T09:15:23;7.70;99.90
3488;DHT22;38546;48.170;11.724;2022-11-20T09:18:13;7.70;99.90
3488;DHT22;38546;48.170;11.724;2022-11-20T09:21:05;7.70;99.90
3488;DHT22;38546;48.170;11.724;2022-11-20T09:23:57;7.70;99.90
3488;DHT22;38546;48.170;11.724;2022-11-20T09:26:47;7.70;99.90
3488;DHT22;38546;48.170;11.724;2022-11-20T09:29:36;7.70;99.90
3488;DHT22;38546;48.170;11.724;2022-11-20T09:32:26;7.90;99.90
3488;DHT22;38546;48.170;11.724;2022-11-20T09:35:15;7.80;99.90
3488;DHT22;38546;48.170;11.724;2022-11-20T09:38:06;8.10;99.90
3488;DHT22;38546;48.170;11.724;2022-11-20T09:41:06;8.10;99.90
3488;DHT22;38546;48.170;11.724;2022-11-20T09:50:52;8.20;99.90
3488;DHT22;38546;48.170;11.724;2022-11-20T09:55:17;8.20;99.90
3488;DHT22;38546;48.170;11.724;2022-11-20T09:58:07;8.30;99.90
3488;DHT22;38546;48.170;11.724;2022-11-20T10:03:11;8.60;99.90
3488;DHT22;38546;48.170;11.724;2022-11-20T10:06:10;8.50;99.90
3488;DHT22;38546;48.170;11.724;2022-11-20T10:09:21;8.60;99.90
3488;DHT22;38546;48.170;11.724;2022-11-20T10:14:04;8.70;99.90
3488;DHT22;38546;48.170;11.724;2022-11-20T10:26:19;8.60;99.90
3488;DHT22;38546;48.170;11.724;2022-11-20T10:29:16;8.90;99.90
3488;DHT22;38546;48.170;11.724;2022-11-20T10:32:19;9.20;99.90
3488;DHT22;38546;48.170;11.724;2022-11-20T10:35:34;9.20;99.90
3488;DHT22;38546;48.170;11.724;2022-11-20T10:38:41;8.90;99.90
3488;DHT22;38546;48.170;11.724;2022-11-20T10:41:38;9.10;99.90
3488;DHT22;38546;48.170;11.724;2022-11-20T10:44:30;9.10;99.90
3488;DHT22;38546;48.170;11.724;2022-11-20T10:47:38;9.00;99.90
3488;DHT22;38546;48.170;11.724;2022-11-20T10:50:28;9.10;99.90
3488;DHT22;38546;48.170;11.724;2022-11-20T10:53:51;9.10;99.90
3488;DHT22;38546;48.170;11.724;2022-11-20T10:56:51;9.10;99.90
3488;DHT22;38546;48.170;11.724;2022-11-20T11:00:00;9.10;99.90
3488;DHT22;38546;48.170;11.724;2022-11-20T11:02:54;9.30;99.90
3488;DHT22;38546;48.170;11.724;2022-11-20T11:06:14;9.30;99.90
3488;DHT22;38546;48.170;11.724;2022-11-20T11:09:24;9.30;99.90
3488;DHT22;38546;48.170;11.724;2022-11-20T11:12:26;9.20;99.90
3488;DHT22;38546;48.170;11.724;2022-11-20T11:15:38;9.10;99.90
3488;DHT22;38546;48.170;11.724;2022-11-20T11:18:34;9.20;99.90
3488;DHT22;38546;48.170;11.724;2022-11-20T11:21:25;9.20;99.90
3488;DHT22;38546;48.170;11.724;2022-11-20T11:24:52;9.30;99.90
3488;DHT22;38546;48.170;11.724;2022-11-20T11:27:50;9.20;99.90
3488;DHT22;38546;48.170;11.724;2022-11-20T11:30:44;9.30;99.90
3488;DHT22;38546;48.170;11.724;2022-11-20T11:33:34;9.30;99.90
3488;DHT22;38546;48.170;11.724;2022-11-20T11:36:24;9.30;99.90
3488;DHT22;38546;48.170;11.724;2022-11-20T11:39:15;9.30;99.90
3488;DHT22;38546;48.170;11.724;2022-11-20T11:42:13;9.40;99.90
3488;DHT22;38546;48.170;11.724;2022-11-20T11:45:07;9.40;99.90
3488;DHT22;38546;48.170;11.724;2022-11-20T11:48:01;9.50;99.90
3488;DHT22;38546;48.170;11.724;2022-11-20T11:50:52;9.40;99.90
3488;DHT22;38546;48.170;11.724;2022-11-20T11:53:43;9.50;99.90
3488;DHT22;38546;48.170;11.724;2022-11-20T11:56:33;9.60;99.90
3488;DHT22;38546;48.170;11.724;2022-11-20T11:59:33;9.50;99.90
3488;DHT22;38546;48.170;11.724;2022-11-20T12:05:30;9.40;99.90
3488;DHT22;38546;48.170;11.724;2022-11-20T12:09:52;9.70;99.90
3488;DHT22;38546;48.170;11.724;2022-11-20T12:12:46;9.40;99.90
3488;DHT22;38546;48.170;11.724;2022-11-20T12:15:44;9.50;99.90
3488;DHT22;38546;48.170;11.724;2022-11-20T12:18:34;9.30;99.90
3488;DHT22;38546;48.170;11.724;2022-11-20T12:28:52;8.90;99.90
3488;DHT22;38546;48.170;11.724;2022-11-20T12:33:49;8.30;99.90
3488;DHT22;38546;48.170;11.724;2022-11-20T12:39:42;7.70;99.90
3488;DHT22;38546;48.170;11.724;2022-11-20T12:42:50;7.60;99.90
3488;DHT22;38546;48.170;11.724;2022-11-20T12:49:25;7.70;99.90
3488;DHT22;38546;48.170;11.724;2022-11-20T12:52:47;7.90;99.90
3488;DHT22;38546;48.170;11.724;2022-11-20T13:01:35;7.90;99.90
3488;DHT22;38546;48.170;11.724;2022-11-20T13:09:01;8.00;99.90
3488;DHT22;38546;48.170;11.724;2022-11-20T13:12:05;8.00;99.90
3488;DHT22;38546;48.170;11.724;2022-11-20T13:17:11;8.10;99.90
3488;DHT22;38546;48.170;11.724;2022-11-20T13:20:48;8.20;99.90
3488;DHT22;38546;48.170;11.724;2022-11-20T13:23:39;8.20;99.90
3488;DHT22;38546;48.170;11.724;2022-11-20T13:26:28;8.10;99.90
3488;DHT22;38546;48.170;11.724;2022-11-20T13:29:19;8.00;99.90
3488;DHT22;38546;48.170;11.724;2022-11-20T13:32:20;8.00;99.90
3488;DHT22;38546;48.170;11.724;2022-11-20T13:35:10;7.80;99.90
3488;DHT22;38546;48.170;11.724;2022-11-20T13:38:02;7.70;99.90
3488;DHT22;38546;48.170;11.724;2022-11-20T13:40:57;7.70;99.90
3488;DHT22;38546;48.170;11.724;2022-11-20T13:43:48;7.70;99.90
3488;DHT22;38546;48.170;11.724;2022-11-20T13:46:54;7.70;99.90
3488;DHT22;38546;48.170;11.724;2022-11-20T13:49:44;7.60;99.90
3488;DHT22;38546;48.170;11.724;2022-11-20T13:52:57;7.50;99.90
3488;DHT22;38546;48.170;11.724;2022-11-20T13:58:59;7.50;99.90
3488;DHT22;38546;48.170;11.724;2022-11-20T14:03:23;7.60;99.90
3488;DHT22;38546;48.170;11.724;2022-11-20T14:06:38;7.70;99.90
3488;DHT22;38546;48.170;11.724;2022-11-20T14:09:32;7.80;99.90
3488;DHT22;38546;48.170;11.724;2022-11-20T14:12:31;7.80;99.90
3488;DHT22;38546;48.170;11.724;2022-11-20T14:15:31;7.90;99.90
3488;DHT22;38546;48.170;11.724;2022-11-20T14:18:21;7.90;99.90
3488;DHT22;38546;48.170;11.724;2022-11-20T14:21:11;7.90;99.90
3488;DHT22;38546;48.170;11.724;2022-11-20T14:24:10;7.90;99.90
3488;DHT22;38546;48.170;11.724;2022-11-20T14:27:01;8.00;99.90
3488;DHT22;38546;48.170;11.724;2022-11-20T14:29:52;7.90;99.90
3488;DHT22;38546;48.170;11.724;2022-11-20T14:32:42;7.70;99.90
3488;DHT22;38546;48.170;11.724;2022-11-20T14:35:44;7.80;99.90
3488;DHT22;38546;48.170;11.724;2022-11-20T14:38:35;8.00;99.90
3488;DHT22;38546;48.170;11.724;2022-11-20T14:41:25;8.20;99.90
3488;DHT22;38546;48.170;11.724;2022-11-20T14:44:14;8.10;99.90
3488;DHT22;38546;48.170;11.724;2022-11-20T14:47:04;8.20;99.90
3488;DHT22;38546;48.170;11.724;2022-11-20T14:49:55;8.10;99.90
3488;DHT22;38546;48.170;11.724;2022-11-20T14:52:58;8.10;99.90
3488;DHT22;38546;48.170;11.724;2022-11-20T14:55:58;8.10;99.90
3488;DHT22;38546;48.170;11.724;2022-11-20T14:58:57;8.00;99.90
3488;DHT22;38546;48.170;11.724;2022-11-20T15:01:57;8.10;99.90
3488;DHT22;38546;48.170;11.724;2022-11-20T15:04:58;8.20;99.90
3488;DHT22;38546;48.170;11.724;2022-11-20T15:08:04;8.20;99.90
3488;DHT22;38546;48.170;11.724;2022-11-20T15:10:57;8.10;99.90
3488;DHT22;38546;48.170;11.724;2022-11-20T15:13:47;8.10;99.90
3488;DHT22;38546;48.170;11.724;2022-11-20T15:16:36;8.10;99.90
3488;DHT22;38546;48.170;11.724;2022-11-20T15:19:26;8.20;99.90
3488;DHT22;38546;48.170;11.724;2022-11-20T15:22:16;8.00;99.90
3488;DHT22;38546;48.170;11.724;2022-11-20T15:25:12;8.10;99.90
3488;DHT22;38546;48.170;11.724;2022-11-20T15:28:04;8.00;99.90
3488;DHT22;38546;48.170;11.724;2022-11-20T15:30:53;7.90;99.90
3488;DHT22;38546;48.170;11.724;2022-11-20T15:33:42;8.00;99.90
3488;DHT22;38546;48.170;11.724;2022-11-20T15:36:31;8.00;99.90
3488;DHT22;38546;48.170;11.724;2022-11-20T15:39:21;8.00;99.90
3488;DHT22;38546;48.170;11.724;2022-11-20T15:42:10;8.10;99.90
3488;DHT22;38546;48.170;11.724;2022-11-20T15:44:59;8.10;99.90
3488;DHT22;38546;48.170;11.724;2022-11-20T15:47:49;8.10;99.90
3488;DHT22;38546;48.170;11.724;2022-11-20T15:51:27;8.00;99.90
3488;DHT22;38546;48.170;11.724;2022-11-20T15:54:20;7.80;99.90
3488;DHT22;38546;48.170;11.724;2022-11-20T15:57:10;7.80;99.90
3488;DHT22;38546;48.170;11.724;2022-11-20T15:59:59;7.70;99.90
3488;DHT22;38546;48.170;11.724;2022-11-20T16:02:48;7.60;99.90
3488;DHT22;38546;48.170;11.724;2022-11-20T16:05:38;7.60;99.90
3488;DHT22;38546;48.170;11.724;2022-11-20T16:08:27;7.40;99.90
3488;DHT22;38546;48.170;11.724;2022-11-20T16:11:17;7.50;99.90
3488;DHT22;38546;48.170;11.724;2022-11-20T16:14:10;7.40;99.90
3488;DHT22;38546;48.170;11.724;2022-11-20T16:17:18;7.20;99.90
3488;DHT22;38546;48.170;11.724;2022-11-20T16:20:31;7.20;99.90
3488;DHT22;38546;48.170;11.724;2022-11-20T16:23:21;7.30;99.90
3488;DHT22;38546;48.170;11.724;2022-11-20T16:26:12;7.30;99.90
3488;DHT22;38546;48.170;11.724;2022-11-20T16:29:04;7.20;99.90
3488;DHT22;38546;48.170;11.724;2022-11-20T16:31:54;7.00;99.90
3488;DHT22;38546;48.170;11.724;2022-11-20T16:34:43;6.90;99.90
3488;DHT22;38546;48.170;11.724;2022-11-20T16:37:32;6.80;99.90
3488;DHT22;38546;48.170;11.724;2022-11-20T16:40:23;6.60;99.90
3488;DHT22;38546;48.170;11.724;2022-11-20T16:43:13;6.40;99.90
3488;DHT22;38546;48.170;11.724;2022-11-20T16:46:04;6.30;99.90
3488;DHT22;38546;48.170;11.724;2022-11-20T16:48:58;6.20;99.90
3488;DHT22;38546;48.170;11.724;2022-11-20T16:51:49;6.10;99.90
3488;DHT22;38546;48.170;11.724;2022-11-20T16:54:38;6.00;99.90
3488;DHT22;38546;48.170;11.724;2022-11-20T16:57:28;5.90;99.90
3488;DHT22;38546;48.170;11.724;2022-11-20T17:00:18;5.90;99.90
3488;DHT22;38546;48.170;11.724;2022-11-20T17:03:08;5.80;99.90
3488;DHT22;38546;48.170;11.724;2022-11-20T17:05:57;5.80;99.90
3488;DHT22;38546;48.170;11.724;2022-11-20T17:08:46;5.80;99.90
3488;DHT22;38546;48.170;11.724;2022-11-20T17:11:36;5.60;99.90
3488;DHT22;38546;48.170;11.724;2022-11-20T17:14:25;5.50;99.90
3488;DHT22;38546;48.170;11.724;2022-11-20T17:17:14;5.40;99.90
3488;DHT22;38546;48.170;11.724;2022-11-20T17:20:05;5.30;99.90
3488;DHT22;38546;48.170;11.724;2022-11-20T17:22:55;5.20;99.90
3488;DHT22;38546;48.170;11.724;2022-11-20T17:25:45;5.10;99.90
3488;DHT22;38546;48.170;11.724;2022-11-20T17:28:34;5.00;99.90
3488;DHT22;38546;48.170;11.724;2022-11-20T17:31:25;5.00;99.90
3488;DHT22;38546;48.170;11.724;2022-11-20T17:34:15;4.90;99.90
3488;DHT22;38546;48.170;11.724;2022-11-20T17:37:05;4.80;99.90
3488;DHT22;38546;48.170;11.724;2022-11-20T17:39:54;4.80;99.90
3488;DHT22;38546;48.170;11.724;2022-11-20T17:42:44;4.70;99.90
3488;DHT22;38546;48.170;11.724;2022-11-20T17:45:34;4.70;99.90
3488;DHT22;38546;48.170;11.724;2022-11-20T17:48:24;4.60;99.90
3488;DHT22;38546;48.170;11.724;2022-11-20T17:51:20;4.60;99.90
3488;DHT22;38546;48.170;11.724;2022-11-20T17:54:10;4.50;99.90
3488;DHT22;38546;48.170;11.724;2022-11-20T17:56:59;4.50;99.90
3488;DHT22;38546;48.170;11.724;2022-11-20T18:00:08;4.50;99.90
3488;DHT22;38546;48.170;11.724;2022-11-20T18:03:00;4.40;99.90
3488;DHT22;38546;48.170;11.724;2022-11-20T18:05:49;4.50;99.90
3488;DHT22;38546;48.170;11.724;2022-11-20T18:08:39;4.50;99.90
3488;DHT22;38546;48.170;11.724;2022-11-20T18:11:31;4.40;99.90
3488;DHT22;38546;48.170;11.724;2022-11-20T18:14:25;4.40;99.90
3488;DHT22;38546;48.170;11.724;2022-11-20T18:17:16;4.30;99.90
3488;DHT22;38546;48.170;11.724;2022-11-20T18:20:06;4.30;99.90
3488;DHT22;38546;48.170;11.724;2022-11-20T18:22:57;4.20;99.90
3488;DHT22;38546;48.170;11.724;2022-11-20T18:25:46;4.20;99.90
3488;DHT22;38546;48.170;11.724;2022-11-20T18:28:36;4.20;99.90
3488;DHT22;38546;48.170;11.724;2022-11-20T18:31:26;4.20;99.90
3488;DHT22;38546;48.170;11.724;2022-11-20T18:34:16;4.20;99.90
3488;DHT22;38546;48.170;11.724;2022-11-20T18:37:05;4.10;99.90
3488;DHT22;38546;48.170;11.724;2022-11-20T18:39:57;4.10;99.90
3488;DHT22;38546;48.170;11.724;2022-11-20T18:42:47;4.10;99.90
3488;DHT22;38546;48.170;11.724;2022-11-20T18:46:03;4.10;99.90
3488;DHT22;38546;48.170;11.724;2022-11-20T18:48:52;4.10;99.90
3488;DHT22;38546;48.170;11.724;2022-11-20T18:51:42;4.10;99.90
3488;DHT22;38546;48.170;11.724;2022-11-20T18:54:35;4.10;99.90
3488;DHT22;38546;48.170;11.724;2022-11-20T18:57:27;4.00;99.90
3488;DHT22;38546;48.170;11.724;2022-11-20T19:00:17;4.10;99.90
3488;DHT22;38546;48.170;11.724;2022-11-20T19:03:06;4.10;99.90
3488;DHT22;38546;48.170;11.724;2022-11-20T19:05:55;4.10;99.90
3488;DHT22;38546;48.170;11.724;2022-11-20T19:08:44;4.00;99.90
3488;DHT22;38546;48.170;11.724;2022-11-20T19:11:33;4.00;99.90
3488;DHT22;38546;48.170;11.724;2022-11-20T19:14:24;4.10;99.90
3488;DHT22;38546;48.170;11.724;2022-11-20T19:17:14;4.00;99.90
3488;DHT22;38546;48.170;11.724;2022-11-20T19:20:06;4.00;99.90
3488;DHT22;38546;48.170;11.724;2022-11-20T19:22:55;4.00;99.90
3488;DHT22;38546;48.170;11.724;2022-11-20T19:25:44;4.00;99.90
3488;DHT22;38546;48.170;11.724;2022-11-20T19:28:35;4.00;99.90
3488;DHT22;38546;48.170;11.724;2022-11-20T19:31:25;3.90;99.90